createdAt,value
2022-08-17T00:01:51.879Z,61.43
2022-08-17T00:04:25.991Z,61.85
2022-08-17T00:07:01.827Z,62.02
2022-08-17T00:09:44.885Z,62.01
2022-08-17T00:12:42.083Z,62.20
2022-08-17T00:15:15.984Z,62.34
2022-08-17T00:19:00.394Z,62.21
2022-08-17T00:21:10.582Z,62.48
2022-08-17T00:23:49.522Z,62.54
2022-08-17T00:26:43.442Z,62.56
2022-08-17T00:29:19.861Z,62.78
2022-08-17T00:31:53.266Z,62.76
2022-08-17T00:34:32.403Z,62.88
2022-08-17T00:37:03.970Z,62.89
2022-08-17T00:39:34.024Z,62.99
2022-08-17T00:42:15.185Z,63.19
2022-08-17T00:44:49.508Z,63.13
2022-08-17T00:47:16.997Z,63.21
2022-08-17T00:49:53.676Z,63.11
2022-08-17T00:52:27.191Z,63.15
2022-08-17T00:55:00.937Z,63.34
2022-08-17T00:57:40.862Z,63.28
2022-08-17T01:00:26.026Z,63.53
2022-08-17T01:03:11.941Z,63.66
2022-08-17T01:05:43.670Z,63.87
2022-08-17T01:08:17.686Z,63.91
2022-08-17T01:11:02.016Z,64.28
2022-08-17T01:13:57.985Z,64.45
2022-08-17T01:16:52.145Z,64.50
2022-08-17T01:19:33.893Z,64.90
2022-08-17T01:22:13.804Z,64.93
2022-08-17T01:24:54.554Z,65.17
2022-08-17T01:27:31.107Z,65.37
2022-08-17T01:30:57.975Z,65.49
2022-08-17T01:33:03.998Z,65.52
2022-08-17T01:35:33.404Z,65.70
2022-08-17T01:38:06.289Z,65.66
2022-08-17T01:40:57.676Z,65.79
2022-08-17T01:43:39.544Z,66.08
2022-08-17T01:46:13.976Z,66.09
2022-08-17T01:48:46.924Z,65.97
2022-08-17T01:51:35.419Z,65.68
2022-08-17T01:54:32.158Z,65.77
2022-08-17T01:56:59.334Z,65.94
2022-08-17T01:59:29.758Z,66.06
2022-08-17T02:02:03.175Z,66.32
2022-08-17T02:04:37.167Z,66.26
2022-08-17T02:07:12.158Z,66.57
2022-08-17T02:09:43.784Z,66.56
2022-08-17T02:12:39.362Z,66.72
2022-08-17T02:15:28.774Z,66.63
2022-08-17T02:18:04.260Z,66.61
2022-08-17T02:20:50.610Z,66.94
2022-08-17T02:23:22.961Z,66.92
2022-08-17T02:26:25.551Z,67.40
2022-08-17T02:29:01.738Z,67.48
2022-08-17T02:31:37.578Z,67.42
2022-08-17T02:34:07.971Z,67.42
2022-08-17T02:36:42.949Z,67.52
2022-08-17T02:39:32.643Z,67.64
2022-08-17T02:42:09.676Z,67.74
2022-08-17T02:45:03.678Z,68.08
2022-08-17T02:47:47.173Z,68.24
2022-08-17T02:50:26.810Z,68.11
2022-08-17T02:53:02.885Z,68.06
2022-08-17T02:55:46.568Z,68.12
2022-08-17T02:58:17.638Z,68.38
2022-08-17T03:01:10.447Z,68.33
2022-08-17T03:03:52.445Z,68.55
2022-08-17T03:06:31.320Z,68.60
2022-08-17T03:09:18.798Z,68.56
2022-08-17T03:11:51.487Z,68.58
2022-08-17T03:14:32.129Z,68.71
2022-08-17T03:17:10.892Z,68.70
2022-08-17T03:19:43.277Z,68.60
2022-08-17T03:22:35.877Z,68.91
2022-08-17T03:25:10.574Z,68.79
2022-08-17T03:27:44.672Z,69.12
2022-08-17T03:30:22.192Z,69.23
2022-08-17T03:32:56.679Z,69.42
2022-08-17T03:35:29.830Z,69.59
2022-08-17T03:38:26.316Z,69.55
2022-08-17T03:40:59.744Z,69.67
2022-08-17T03:43:33.152Z,69.74
2022-08-17T03:46:32.457Z,69.58
2022-08-17T03:49:29.769Z,69.77
2022-08-17T03:52:21.262Z,69.98
2022-08-17T03:55:10.076Z,70.01
2022-08-17T03:57:40.220Z,70.03
2022-08-17T04:00:07.876Z,70.09
2022-08-17T04:02:51.555Z,70.29
2022-08-17T04:05:35.607Z,70.25
2022-08-17T04:08:15.756Z,70.35
2022-08-17T04:10:51.593Z,70.29
2022-08-17T04:13:25.587Z,70.34
2022-08-17T04:15:58.788Z,70.37
2022-08-17T04:18:29.008Z,70.42
2022-08-17T04:20:56.311Z,70.58
2022-08-17T04:23:33.298Z,70.43
2022-08-17T04:26:11.826Z,70.55
2022-08-17T04:29:54.779Z,70.64
2022-08-17T04:33:04.769Z,70.46
2022-08-17T04:35:36.931Z,70.68
2022-08-17T04:38:09.822Z,70.56
2022-08-17T04:41:19.030Z,70.40
2022-08-17T04:43:57.978Z,70.50
2022-08-17T04:46:41.043Z,70.39
2022-08-17T04:49:55.274Z,70.26
2022-08-17T04:52:43.336Z,70.01
2022-08-17T04:55:24.141Z,69.93
2022-08-17T04:57:54.535Z,69.66
2022-08-17T05:00:27.820Z,69.59
2022-08-17T05:03:06.191Z,69.34
2022-08-17T05:05:49.373Z,69.13
2022-08-17T05:08:48.290Z,68.94
2022-08-17T05:11:21.658Z,68.72
2022-08-17T05:14:09.153Z,68.70
2022-08-17T05:16:45.115Z,68.15
2022-08-17T05:19:26.953Z,67.88
2022-08-17T05:22:14.806Z,67.40
2022-08-17T05:24:53.802Z,66.33
2022-08-17T05:27:35.471Z,65.80
2022-08-17T05:30:06.698Z,65.27
2022-08-17T05:32:40.327Z,64.77
2022-08-17T05:35:12.909Z,63.99
2022-08-17T05:37:40.443Z,63.45
2022-08-17T05:40:07.977Z,62.68
2022-08-17T05:42:37.786Z,61.66
2022-08-17T05:45:32.142Z,60.87
2022-08-17T05:48:18.651Z,59.96
2022-08-17T05:51:13.552Z,59.46
2022-08-17T05:53:52.481Z,58.72
2022-08-17T05:56:43.580Z,57.94
2022-08-17T05:59:37.974Z,56.58
2022-08-17T06:03:20.320Z,55.53
2022-08-17T06:06:27.259Z,54.48
2022-08-17T06:09:14.827Z,53.20
2022-08-17T06:12:05.390Z,52.27
2022-08-17T06:14:45.207Z,51.98
2022-08-17T06:17:21.600Z,51.81
2022-08-17T06:20:02.382Z,51.37
2022-08-17T06:22:44.373Z,50.89
2022-08-17T06:25:23.321Z,50.23
2022-08-17T06:27:56.601Z,49.78
2022-08-17T06:30:27.835Z,49.10
2022-08-17T06:33:23.453Z,48.39
2022-08-17T06:36:15.799Z,48.07
2022-08-17T06:39:05.787Z,46.97
2022-08-17T06:42:02.474Z,47.03
2022-08-17T06:44:52.052Z,46.54
2022-08-17T06:47:35.778Z,45.97
2022-08-17T06:50:37.199Z,46.97
2022-08-17T06:53:29.792Z,47.06
2022-08-17T06:56:53.919Z,47.07
2022-08-17T06:59:54.204Z,46.46
2022-08-17T07:02:52.536Z,46.54
2022-08-17T07:05:36.246Z,45.82
2022-08-17T07:08:35.199Z,45.34
2022-08-17T07:11:15.061Z,45.48
2022-08-17T07:13:51.736Z,45.30
2022-08-17T07:16:33.660Z,45.17
2022-08-17T07:19:26.103Z,44.69
2022-08-17T07:22:17.070Z,44.31
2022-08-17T07:25:02.479Z,44.13
2022-08-17T07:27:45.450Z,43.27
2022-08-17T07:30:55.295Z,43.21
2022-08-17T07:33:39.112Z,43.04
2022-08-17T07:36:35.838Z,42.87
2022-08-17T07:39:11.262Z,41.74
2022-08-17T07:41:57.852Z,41.90
2022-08-17T07:44:32.091Z,41.22
2022-08-17T07:47:35.006Z,41.29
2022-08-17T07:50:26.992Z,40.57
2022-08-17T07:53:26.766Z,40.23
2022-08-17T08:01:22.070Z,39.12
2022-08-17T08:05:08.828Z,39.58
2022-08-17T08:08:27.264Z,39.37
2022-08-17T08:11:33.138Z,38.44
2022-08-17T08:14:28.633Z,38.62
2022-08-17T08:17:09.322Z,38.85
2022-08-17T08:19:41.395Z,38.69
2022-08-17T08:22:35.895Z,38.44
2022-08-17T08:25:14.683Z,38.07
2022-08-17T08:27:45.004Z,37.56
2022-08-17T08:30:29.990Z,37.64
2022-08-17T08:33:55.925Z,37.24
2022-08-17T08:37:15.934Z,37.08
2022-08-17T08:40:01.823Z,36.86
2022-08-17T08:42:52.319Z,36.77
2022-08-17T08:45:37.654Z,36.74
2022-08-17T08:48:56.603Z,36.08
2022-08-17T08:51:38.072Z,35.52
2022-08-17T08:54:34.955Z,35.26
2022-08-17T08:57:26.817Z,34.88
2022-08-17T09:00:17.456Z,33.70
2022-08-17T09:03:07.503Z,33.71
2022-08-17T09:06:37.359Z,33.55
2022-08-17T09:09:41.986Z,33.83
2022-08-17T09:12:52.179Z,33.72
2022-08-17T09:15:35.416Z,33.42
2022-08-17T09:19:02.280Z,33.39
2022-08-17T09:21:02.902Z,32.49
2022-08-17T09:23:59.536Z,33.11
2022-08-17T09:26:39.692Z,33.01
2022-08-17T09:29:13.803Z,33.11
2022-08-17T09:31:52.898Z,33.12
2022-08-17T09:34:31.948Z,32.92
2022-08-17T09:37:15.635Z,32.50
2022-08-17T09:39:52.996Z,32.43
2022-08-17T09:42:51.494Z,32.31
2022-08-17T09:45:50.350Z,31.97
2022-08-17T09:48:25.280Z,32.39
2022-08-17T09:51:06.548Z,32.55
2022-08-17T09:53:37.674Z,32.14
2022-08-17T09:56:56.520Z,31.80
2022-08-17T10:00:19.094Z,31.39
2022-08-17T10:03:02.543Z,31.27
2022-08-17T10:05:48.725Z,31.13
2022-08-17T10:08:33.465Z,31.54
2022-08-17T10:11:16.840Z,32.28
2022-08-17T10:14:02.901Z,32.17
2022-08-17T10:17:06.806Z,32.55
2022-08-17T10:20:01.449Z,32.80
2022-08-17T10:23:03.171Z,32.18
2022-08-17T10:25:55.004Z,31.25
2022-08-17T10:28:31.151Z,30.91
2022-08-17T10:31:33.325Z,31.12
2022-08-17T10:34:18.795Z,30.66
2022-08-17T10:36:54.498Z,30.11
2022-08-17T10:39:53.757Z,30.66
2022-08-17T10:42:34.892Z,31.04
2022-08-17T10:45:06.700Z,30.53
2022-08-17T10:48:07.192Z,30.53
2022-08-17T10:50:53.291Z,29.61
2022-08-17T10:53:32.556Z,29.33
2022-08-17T10:56:18.160Z,29.12
2022-08-17T10:58:57.640Z,28.67
2022-08-17T11:01:33.848Z,28.97
2022-08-17T11:04:26.970Z,28.01
2022-08-17T11:07:18.286Z,27.41
2022-08-17T11:10:16.245Z,27.16
2022-08-17T11:13:05.701Z,27.32
2022-08-17T11:16:10.229Z,28.14
2022-08-17T11:19:11.908Z,28.91
2022-08-17T11:22:05.627Z,29.16
2022-08-17T11:24:47.422Z,29.26
2022-08-17T11:27:27.211Z,29.05
2022-08-17T11:30:12.434Z,29.31
2022-08-17T11:32:53.054Z,29.67
2022-08-17T11:35:22.796Z,29.57
2022-08-17T11:38:16.712Z,29.09
2022-08-17T11:41:11.810Z,28.61
2022-08-17T11:44:03.631Z,28.65
2022-08-17T11:47:16.962Z,28.94
2022-08-17T11:50:12.507Z,29.05
2022-08-17T11:52:55.457Z,29.33
2022-08-17T11:55:38.536Z,28.81
2022-08-17T11:58:45.899Z,28.00
2022-08-17T12:01:56.203Z,27.94
2022-08-17T12:04:31.045Z,28.44
2022-08-17T12:07:05.416Z,28.70
2022-08-17T12:09:40.192Z,28.62
2022-08-17T12:12:29.658Z,28.79
2022-08-17T12:15:10.037Z,29.04
2022-08-17T12:17:42.713Z,29.08
2022-08-17T12:20:27.332Z,29.02
2022-08-17T12:23:15.385Z,28.66
2022-08-17T12:25:51.550Z,28.97
2022-08-17T12:28:32.271Z,29.06
2022-08-17T12:31:08.488Z,29.30
2022-08-17T12:33:44.085Z,29.65
2022-08-17T12:36:18.805Z,29.53
2022-08-17T12:39:21.173Z,29.60
2022-08-17T12:42:32.871Z,29.63
2022-08-17T12:45:23.540Z,29.98
2022-08-17T12:48:07.383Z,30.04
2022-08-17T12:50:44.377Z,30.11
2022-08-17T12:53:35.546Z,30.32
2022-08-17T12:56:10.246Z,29.95
2022-08-17T12:58:48.043Z,29.96
2022-08-17T13:01:17.163Z,30.40
2022-08-17T13:03:51.980Z,30.27
2022-08-17T13:06:29.731Z,29.79
2022-08-17T13:09:12.117Z,29.37
2022-08-17T13:11:55.389Z,29.44
2022-08-17T13:14:26.074Z,29.10
2022-08-17T13:16:59.073Z,29.34
2022-08-17T13:19:40.910Z,29.46
2022-08-17T13:22:12.173Z,29.62
2022-08-17T13:25:03.471Z,29.73
2022-08-17T13:27:34.942Z,29.57
2022-08-17T13:30:07.502Z,29.92
2022-08-17T13:32:40.450Z,29.79
2022-08-17T13:35:40.939Z,29.71
2022-08-17T13:38:37.127Z,29.76
2022-08-17T13:41:05.893Z,30.20
2022-08-17T13:43:44.534Z,30.03
2022-08-17T13:46:28.517Z,30.13
2022-08-17T13:49:04.254Z,30.75
2022-08-17T13:51:35.226Z,30.45
2022-08-17T13:54:06.290Z,30.81
2022-08-17T13:56:55.607Z,30.25
2022-08-17T13:59:54.992Z,30.33
2022-08-17T14:02:28.370Z,30.39
2022-08-17T14:04:59.993Z,30.39
2022-08-17T14:07:33.330Z,30.29
2022-08-17T14:10:12.033Z,30.34
2022-08-17T14:12:44.371Z,30.49
2022-08-17T14:15:14.904Z,30.36
2022-08-17T14:17:42.070Z,30.22
2022-08-17T14:20:12.991Z,30.20
2022-08-17T14:22:50.576Z,30.42
2022-08-17T14:25:21.516Z,30.20
2022-08-17T14:27:52.852Z,30.43
2022-08-17T14:30:27.003Z,30.45
2022-08-17T14:32:58.145Z,30.61
2022-08-17T14:35:30.337Z,30.94
2022-08-17T14:38:05.740Z,30.88
2022-08-17T14:40:34.222Z,30.63
2022-08-17T14:43:11.058Z,30.84
2022-08-17T14:45:41.925Z,31.02
2022-08-17T14:48:11.008Z,30.74
2022-08-17T14:50:41.642Z,30.97
2022-08-17T14:53:13.077Z,30.89
2022-08-17T14:55:42.009Z,30.78
2022-08-17T14:58:09.349Z,30.88
2022-08-17T15:00:40.959Z,30.76
2022-08-17T15:03:08.025Z,30.84
2022-08-17T15:05:36.811Z,31.18
2022-08-17T15:08:05.708Z,30.99
2022-08-17T15:10:37.121Z,31.13
2022-08-17T15:13:21.881Z,31.03
2022-08-17T15:15:49.455Z,30.90
2022-08-17T15:18:16.980Z,30.77
2022-08-17T15:20:44.750Z,30.62
2022-08-17T15:23:14.960Z,30.52
2022-08-17T15:25:43.285Z,30.61
2022-08-17T15:28:22.316Z,30.86
2022-08-17T15:30:56.957Z,31.22
2022-08-17T15:33:34.930Z,30.95
2022-08-17T15:36:06.492Z,31.18
2022-08-17T15:38:38.979Z,31.09
2022-08-17T15:41:14.634Z,31.09
2022-08-17T15:43:42.443Z,31.32
2022-08-17T15:46:14.002Z,31.37
2022-08-17T15:48:42.899Z,31.58
2022-08-17T15:51:21.181Z,31.69
2022-08-17T15:53:51.419Z,31.63
2022-08-17T15:56:19.462Z,31.66
2022-08-17T15:58:48.592Z,31.77
2022-08-17T16:01:41.876Z,32.05
2022-08-17T16:04:29.701Z,32.24
2022-08-17T16:07:02.016Z,32.30
2022-08-17T16:09:31.022Z,32.53
2022-08-17T16:12:17.926Z,32.69
2022-08-17T16:14:46.608Z,32.49
2022-08-17T16:17:38.286Z,32.47
2022-08-17T16:20:04.745Z,32.66
2022-08-17T16:22:38.197Z,32.74
2022-08-17T16:25:09.955Z,32.48
2022-08-17T16:27:38.845Z,32.45
2022-08-17T16:30:07.215Z,32.43
2022-08-17T16:32:35.755Z,32.63
2022-08-17T16:35:11.714Z,32.47
2022-08-17T16:37:39.973Z,32.34
2022-08-17T16:40:35.761Z,32.40
2022-08-17T16:43:10.983Z,32.48
2022-08-17T16:45:39.881Z,32.87
2022-08-17T16:48:11.418Z,32.99
2022-08-17T16:50:59.968Z,33.22
2022-08-17T16:53:31.643Z,33.54
2022-08-17T16:55:58.724Z,33.69
2022-08-17T16:58:28.704Z,34.17
2022-08-17T17:00:59.034Z,34.21
2022-08-17T17:03:30.083Z,34.31
2022-08-17T17:06:22.146Z,34.26
2022-08-17T17:09:03.177Z,34.18
2022-08-17T17:11:47.216Z,34.59
2022-08-17T17:14:24.122Z,34.44
2022-08-17T17:17:13.553Z,34.46
2022-08-17T17:19:49.225Z,34.48
2022-08-17T17:22:47.689Z,34.48
2022-08-17T17:25:26.903Z,34.91
2022-08-17T17:28:10.510Z,35.01
2022-08-17T17:31:23.575Z,35.03
2022-08-17T17:33:55.161Z,35.58
2022-08-17T17:37:05.800Z,35.42
2022-08-17T17:39:51.073Z,35.57
2022-08-17T17:42:28.176Z,35.72
2022-08-17T17:50:21.205Z,36.53
2022-08-17T17:53:17.781Z,36.69
2022-08-17T17:55:59.376Z,36.76
2022-08-17T17:58:31.769Z,36.94
2022-08-17T18:01:22.495Z,37.66
2022-08-17T18:04:17.708Z,37.66
2022-08-17T18:07:09.972Z,38.05
2022-08-17T18:10:03.044Z,39.25
2022-08-17T18:12:45.328Z,40.23
2022-08-17T18:15:39.393Z,40.70
2022-08-17T18:18:16.920Z,41.27
2022-08-17T18:20:55.769Z,41.79
2022-08-17T18:23:28.658Z,42.44
2022-08-17T18:26:01.950Z,43.02
2022-08-17T18:28:38.545Z,43.23
2022-08-17T18:31:22.961Z,43.76
2022-08-17T18:37:36.115Z,44.66
2022-08-17T18:41:03.156Z,44.96
2022-08-17T18:43:53.356Z,45.60
2022-08-17T18:46:40.265Z,46.21
2022-08-17T18:49:33.427Z,46.28
2022-08-17T18:52:29.975Z,46.26
2022-08-17T18:54:57.539Z,45.76
2022-08-17T18:57:32.524Z,45.24
2022-08-17T19:00:01.506Z,45.37
2022-08-17T19:02:44.620Z,44.45
2022-08-17T19:05:40.902Z,44.05
2022-08-17T19:08:29.075Z,43.71
2022-08-17T19:11:09.779Z,43.80
2022-08-17T19:13:51.802Z,43.68
2022-08-17T19:16:32.033Z,43.29
2022-08-17T19:19:38.383Z,43.17
2022-08-17T19:23:02.694Z,43.37
2022-08-17T19:25:45.059Z,43.63
2022-08-17T19:28:28.212Z,43.58
2022-08-17T19:31:31.517Z,43.97
2022-08-17T19:34:48.978Z,44.00
2022-08-17T19:38:18.863Z,43.65
2022-08-17T19:41:12.973Z,43.41
2022-08-17T19:44:09.952Z,43.28
2022-08-17T19:48:00.528Z,43.18
2022-08-17T19:50:55.451Z,43.05
2022-08-17T19:54:03.684Z,42.98
2022-08-17T19:57:15.860Z,42.81
2022-08-17T19:59:51.944Z,42.82
2022-08-17T20:02:41.294Z,43.33
2022-08-17T20:05:15.172Z,43.71
2022-08-17T20:07:57.350Z,44.19
2022-08-17T20:11:20.738Z,44.49
2022-08-17T20:14:34.648Z,44.89
2022-08-17T20:18:11.909Z,45.19
2022-08-17T20:21:19.953Z,45.39
2022-08-17T20:24:52.280Z,45.55
2022-08-17T20:28:22.537Z,45.69
2022-08-17T20:31:03.063Z,45.92
2022-08-17T20:33:50.168Z,46.33
2022-08-17T20:37:07.308Z,46.65
2022-08-17T20:40:31.473Z,47.25
2022-08-17T20:43:39.476Z,47.69
2022-08-17T20:46:38.288Z,48.33
2022-08-17T20:50:36.444Z,48.73
2022-08-17T20:53:50.550Z,49.09
2022-08-17T20:56:49.083Z,49.77
2022-08-17T20:59:41.249Z,49.81
2022-08-17T21:03:18.632Z,50.20
2022-08-17T21:06:30.388Z,50.69
2022-08-17T21:09:17.605Z,51.27
2022-08-17T21:12:12.552Z,51.81
2022-08-17T21:15:24.582Z,51.85
2022-08-17T21:18:29.760Z,52.29
2022-08-17T21:21:37.477Z,52.49
2022-08-17T21:24:37.105Z,51.83
2022-08-17T21:27:45.972Z,52.45
2022-08-17T21:30:27.842Z,52.05
2022-08-17T21:33:36.940Z,51.59
2022-08-17T21:36:15.618Z,51.42
2022-08-17T21:39:10.441Z,51.19
2022-08-17T21:42:01.023Z,50.69
2022-08-17T21:45:23.241Z,50.82
2022-08-17T21:48:22.483Z,50.96
2022-08-17T21:51:28.533Z,51.29
2022-08-17T21:54:23.587Z,50.88
2022-08-17T21:56:51.496Z,50.67
2022-08-17T21:59:32.756Z,50.66
2022-08-17T22:02:05.574Z,50.71
2022-08-17T22:04:36.406Z,50.66
2022-08-17T22:07:05.190Z,50.85
2022-08-17T22:09:45.610Z,50.42
2022-08-17T22:12:17.173Z,50.68
2022-08-17T22:15:00.004Z,50.79
2022-08-17T22:17:35.965Z,50.69
2022-08-17T22:20:18.791Z,50.85
2022-08-17T22:23:04.478Z,50.77
2022-08-17T22:25:35.677Z,50.79
2022-08-17T22:28:11.009Z,50.50
2022-08-17T22:31:01.306Z,50.77
2022-08-17T22:33:43.978Z,50.39
2022-08-17T22:36:24.855Z,50.04
2022-08-17T22:39:16.942Z,49.61
2022-08-17T22:41:47.852Z,49.36
2022-08-17T22:44:31.478Z,48.95
2022-08-17T22:47:11.105Z,48.94
2022-08-17T22:49:53.922Z,48.99
2022-08-17T22:53:16.720Z,49.11
2022-08-17T22:56:23.396Z,49.17
2022-08-17T22:59:14.947Z,49.36
2022-08-17T23:01:44.954Z,49.34
2022-08-17T23:04:29.800Z,49.47
2022-08-17T23:06:57.045Z,49.45
2022-08-17T23:09:23.777Z,49.50
2022-08-17T23:11:58.045Z,49.51
2022-08-17T23:14:30.968Z,49.65
2022-08-17T23:17:00.433Z,50.08
2022-08-17T23:19:33.423Z,49.75
2022-08-17T23:22:04.947Z,49.90
2022-08-17T23:24:38.903Z,49.85
2022-08-17T23:27:07.391Z,49.81
2022-08-17T23:29:38.932Z,49.99
2022-08-17T23:32:07.689Z,49.85
2022-08-17T23:34:39.741Z,50.03
2022-08-17T23:37:11.067Z,49.97
2022-08-17T23:39:46.702Z,49.90
2022-08-17T23:42:21.197Z,49.65
2022-08-17T23:44:49.245Z,49.77
2022-08-17T23:47:16.832Z,49.72
2022-08-17T23:49:44.198Z,49.54
2022-08-17T23:52:24.186Z,49.62
2022-08-17T23:54:54.927Z,49.56
2022-08-17T23:57:33.054Z,49.30
